Carnival Magic — 3ETA8 — position and weather

sailwx.info

Track history (hours):
 
Tides and Currents Weather Stations Pressure Air Temp Water Temp Dewpoint Dewpoint Depression Visibility Wind Speed Wind Dir Waves Ship Positions

Carnival Magic

Last reported at 2016-Feb-06 12:00 UTC. Time now 2016-Feb-07 21:26 UTC.
Position N 24°30' W 086°18'.

Length 305 m; draft 8.4 m.

Type: Ship. MMSI: 370491000.

Wind from 020 at 15 knots

Barometer 1018.0 mb
Air temperature 18.0 ° C
Dewpoint 7.0 ° C
Water temperature 14.0 ° C

Date/timePositionNaut miles runAvg speedWind from/ knotsBaromVisibWave heightAir tempDewpointWater temp
2016-Feb-06 12:00N 24°30' W 086°18'33914.1 020 / 151018.0 18.0 7.014.0
2016-Feb-05 12:00N 25°00' W 080°06'2717.3 350 / 301015.0 2.018.011.018.0
2016-Feb-05 10:25N 25°25' W 079°53'1416.9
2016-Feb-05 09:33N 25°37' W 079°44'1917.0
2016-Feb-05 08:27N 25°52' W 079°32'4 0.1
2016-Feb-03 09:32N 25°49' W 079°34'1818.1
2016-Feb-03 08:33N 25°33' W 079°43'  
2016-Jan-31 22:33N 29°21' W 094°46'3 2.5
2016-Jan-31 21:33N 29°19' W 094°48'0 0.0
2016-Jan-31 19:13N 29°19' W 094°48'0 0.0
2016-Jan-31 18:23N 29°19' W 094°48'0 0.0
2016-Jan-31 17:24N 29°19' W 094°48'0 0.0
2016-Jan-31 16:20N 29°19' W 094°48'0 0.0
2016-Jan-31 15:30N 29°19' W 094°48'0 0.0
2016-Jan-31 14:27N 29°19' W 094°48'0 0.0
2016-Jan-31 13:33N 29°19' W 094°48'3 3.4
2016-Jan-31 12:33N 29°21' W 094°45'51320.9
2016-Jan-30 12:00N 24°12' W 087°06'21620.7 070 / 71017.0 1.021.0 1.018.0
2016-Jan-30 01:33N 20°36' W 086°58'7 7.1
2016-Jan-30 00:31N 20°29' W 086°59'0 0.0
2016-Jan-29 23:31N 20°29' W 086°59'0 0.0
2016-Jan-29 22:31N 20°29' W 086°59'0 0.0
2016-Jan-29 21:31N 20°29' W 086°59'0 0.0
2016-Jan-29 20:31N 20°29' W 086°59'0 0.0
2016-Jan-29 19:31N 20°29' W 086°59'0 0.0
2016-Jan-29 18:31N 20°29' W 086°59'0 0.0
2016-Jan-29 17:31N 20°29' W 086°59'0 0.0
2016-Jan-29 16:33N 20°29' W 086°59'5 4.6
2016-Jan-29 15:33N 20°33' W 086°59'6718.8
2016-Jan-29 12:00N 20°24' W 085°48'   350 / 271015.010.8 3.023.0 4.028.0
Track history (hours):
 
Tides and Currents Weather Stations Pressure Air Temp Water Temp Dewpoint Dewpoint Depression Visibility Wind Speed Wind Dir Waves Ship Positions

Carnival Magic

Last reported at 2016-Feb-06 12:00 UTC. Time now 2016-Feb-07 21:26 UTC.
Position N 24°30' W 086°18'.

Length 305 m; draft 8.4 m.

Type: Ship. MMSI: 370491000.

Wind from 020 at 15 knots

Barometer 1018.0 mb
Air temperature 18.0 ° C
Dewpoint 7.0 ° C
Water temperature 14.0 ° C

Date/timePositionNaut miles runAvg speedWind from/ knotsBaromVisibWave heightAir tempDewpointWater temp
2016-Feb-06 12:00N 24°30' W 086°18'33914.1 020 / 151018.0 18.0 7.014.0
2016-Feb-05 12:00N 25°00' W 080°06'2717.3 350 / 301015.0 2.018.011.018.0
2016-Feb-05 10:25N 25°25' W 079°53'1416.9
2016-Feb-05 09:33N 25°37' W 079°44'1917.0
2016-Feb-05 08:27N 25°52' W 079°32'4 0.1
2016-Feb-03 09:32N 25°49' W 079°34'1818.1
2016-Feb-03 08:33N 25°33' W 079°43'  
2016-Jan-31 22:33N 29°21' W 094°46'3 2.5
2016-Jan-31 21:33N 29°19' W 094°48'0 0.0
2016-Jan-31 19:13N 29°19' W 094°48'0 0.0
2016-Jan-31 18:23N 29°19' W 094°48'0 0.0
2016-Jan-31 17:24N 29°19' W 094°48'0 0.0
2016-Jan-31 16:20N 29°19' W 094°48'0 0.0
2016-Jan-31 15:30N 29°19' W 094°48'0 0.0
2016-Jan-31 14:27N 29°19' W 094°48'0 0.0
2016-Jan-31 13:33N 29°19' W 094°48'3 3.4
2016-Jan-31 12:33N 29°21' W 094°45'51320.9
2016-Jan-30 12:00N 24°12' W 087°06'21620.7 070 / 71017.0 1.021.0 1.018.0
2016-Jan-30 01:33N 20°36' W 086°58'7 7.1
2016-Jan-30 00:31N 20°29' W 086°59'0 0.0
2016-Jan-29 23:31N 20°29' W 086°59'0 0.0
2016-Jan-29 22:31N 20°29' W 086°59'0 0.0
2016-Jan-29 21:31N 20°29' W 086°59'0 0.0
2016-Jan-29 20:31N 20°29' W 086°59'0 0.0
2016-Jan-29 19:31N 20°29' W 086°59'0 0.0
2016-Jan-29 18:31N 20°29' W 086°59'0 0.0
2016-Jan-29 17:31N 20°29' W 086°59'0 0.0
2016-Jan-29 16:33N 20°29' W 086°59'5 4.6
2016-Jan-29 15:33N 20°33' W 086°59'6718.8
2016-Jan-29 12:00N 20°24' W 085°48'   350 / 271015.010.8 3.023.0 4.028.0

Dump ship's entire track history